sensor_id;sensor_type;location;lat;lon;timestamp;P1;durP1;ratioP1;P2;durP2;ratioP2
35225;SDS011;21813;49.686;21.766;2023-04-03T00:05:07;5.28;;;4.78;;
35225;SDS011;21813;49.686;21.766;2023-04-03T00:07:35;5.45;;;4.95;;
35225;SDS011;21813;49.686;21.766;2023-04-03T00:10:03;7.15;;;4.75;;
35225;SDS011;21813;49.686;21.766;2023-04-03T00:12:44;4.82;;;4.30;;
35225;SDS011;21813;49.686;21.766;2023-04-03T00:15:10;4.50;;;4.03;;
35225;SDS011;21813;49.686;21.766;2023-04-03T00:17:38;5.88;;;4.28;;
35225;SDS011;21813;49.686;21.766;2023-04-03T00:20:05;4.60;;;4.20;;
35225;SDS011;21813;49.686;21.766;2023-04-03T00:22:32;6.10;;;4.47;;
35225;SDS011;21813;49.686;21.766;2023-04-03T00:24:58;5.30;;;4.60;;
35225;SDS011;21813;49.686;21.766;2023-04-03T00:27:26;5.22;;;4.45;;
35225;SDS011;21813;49.686;21.766;2023-04-03T00:29:51;4.28;;;3.95;;
35225;SDS011;21813;49.686;21.766;2023-04-03T00:32:18;4.60;;;4.18;;
35225;SDS011;21813;49.686;21.766;2023-04-03T00:34:44;4.65;;;4.25;;
35225;SDS011;21813;49.686;21.766;2023-04-03T00:37:12;4.65;;;4.15;;
35225;SDS011;21813;49.686;21.766;2023-04-03T00:39:41;4.90;;;4.25;;
35225;SDS011;21813;49.686;21.766;2023-04-03T00:42:08;5.43;;;4.45;;
35225;SDS011;21813;49.686;21.766;2023-04-03T00:47:29;5.30;;;4.55;;
35225;SDS011;21813;49.686;21.766;2023-04-03T00:50:02;6.13;;;4.45;;
35225;SDS011;21813;49.686;21.766;2023-04-03T00:52:32;5.18;;;4.68;;
35225;SDS011;21813;49.686;21.766;2023-04-03T00:55:13;5.45;;;4.95;;
35225;SDS011;21813;49.686;21.766;2023-04-03T00:57:40;6.05;;;4.78;;
35225;SDS011;21813;49.686;21.766;2023-04-03T01:00:09;5.78;;;5.20;;
35225;SDS011;21813;49.686;21.766;2023-04-03T01:02:38;5.30;;;4.47;;
35225;SDS011;21813;49.686;21.766;2023-04-03T01:05:06;6.50;;;5.40;;
35225;SDS011;21813;49.686;21.766;2023-04-03T01:12:45;6.53;;;5.80;;
35225;SDS011;21813;49.686;21.766;2023-04-03T01:15:30;6.47;;;5.85;;
35225;SDS011;21813;49.686;21.766;2023-04-03T01:18:00;7.05;;;6.25;;
35225;SDS011;21813;49.686;21.766;2023-04-03T01:25:56;7.80;;;7.00;;
35225;SDS011;21813;49.686;21.766;2023-04-03T01:28:30;7.28;;;6.55;;
35225;SDS011;21813;49.686;21.766;2023-04-03T01:31:02;7.10;;;6.40;;
35225;SDS011;21813;49.686;21.766;2023-04-03T01:33:37;8.10;;;6.60;;
35225;SDS011;21813;49.686;21.766;2023-04-03T01:39:14;7.22;;;6.47;;
35225;SDS011;21813;49.686;21.766;2023-04-03T01:41:41;7.30;;;6.13;;
35225;SDS011;21813;49.686;21.766;2023-04-03T02:06:24;6.65;;;6.03;;
35225;SDS011;21813;49.686;21.766;2023-04-03T02:08:53;7.25;;;6.15;;
35225;SDS011;21813;49.686;21.766;2023-04-03T02:11:19;7.00;;;5.13;;
35225;SDS011;21813;49.686;21.766;2023-04-03T02:13:46;6.45;;;5.72;;
35225;SDS011;21813;49.686;21.766;2023-04-03T02:16:11;6.20;;;5.30;;
35225;SDS011;21813;49.686;21.766;2023-04-03T02:18:39;7.07;;;5.70;;
35225;SDS011;21813;49.686;21.766;2023-04-03T02:21:05;7.93;;;6.22;;
35225;SDS011;21813;49.686;21.766;2023-04-03T02:23:32;7.72;;;6.53;;
35225;SDS011;21813;49.686;21.766;2023-04-03T02:26:05;6.93;;;5.72;;
35225;SDS011;21813;49.686;21.766;2023-04-03T02:28:33;6.00;;;5.35;;
35225;SDS011;21813;49.686;21.766;2023-04-03T02:30:59;6.03;;;5.43;;
35225;SDS011;21813;49.686;21.766;2023-04-03T02:33:26;6.97;;;6.22;;
35225;SDS011;21813;49.686;21.766;2023-04-03T02:35:53;6.47;;;5.20;;
35225;SDS011;21813;49.686;21.766;2023-04-03T02:38:26;6.32;;;5.53;;
35225;SDS011;21813;49.686;21.766;2023-04-03T02:40:52;6.40;;;5.72;;
35225;SDS011;21813;49.686;21.766;2023-04-03T02:43:19;5.78;;;5.10;;
35225;SDS011;21813;49.686;21.766;2023-04-03T02:45:44;5.53;;;5.00;;
35225;SDS011;21813;49.686;21.766;2023-04-03T02:48:12;6.88;;;5.50;;
35225;SDS011;21813;49.686;21.766;2023-04-03T02:50:42;5.45;;;4.60;;
35225;SDS011;21813;49.686;21.766;2023-04-03T03:09:18;7.78;;;5.57;;
35225;SDS011;21813;49.686;21.766;2023-04-03T03:11:46;5.22;;;4.72;;
35225;SDS011;21813;49.686;21.766;2023-04-03T03:14:12;5.70;;;4.90;;
35225;SDS011;21813;49.686;21.766;2023-04-03T03:16:39;6.00;;;5.00;;
35225;SDS011;21813;49.686;21.766;2023-04-03T03:19:05;5.78;;;5.13;;
35225;SDS011;21813;49.686;21.766;2023-04-03T03:21:38;6.55;;;5.85;;
35225;SDS011;21813;49.686;21.766;2023-04-03T03:38:38;4.75;;;4.35;;
35225;SDS011;21813;49.686;21.766;2023-04-03T03:41:05;5.30;;;4.72;;
35225;SDS011;21813;49.686;21.766;2023-04-03T03:43:31;5.43;;;4.93;;
35225;SDS011;21813;49.686;21.766;2023-04-03T03:46:00;8.30;;;5.30;;
35225;SDS011;21813;49.686;21.766;2023-04-03T03:48:28;6.82;;;4.63;;
35225;SDS011;21813;49.686;21.766;2023-04-03T03:50:56;5.45;;;4.95;;
35225;SDS011;21813;49.686;21.766;2023-04-03T03:53:22;6.50;;;4.38;;
35225;SDS011;21813;49.686;21.766;2023-04-03T03:55:48;5.25;;;4.50;;
35225;SDS011;21813;49.686;21.766;2023-04-03T03:58:14;5.32;;;4.70;;
35225;SDS011;21813;49.686;21.766;2023-04-03T04:00:41;8.50;;;5.95;;
35225;SDS011;21813;49.686;21.766;2023-04-03T04:03:07;8.20;;;5.03;;
35225;SDS011;21813;49.686;21.766;2023-04-03T04:08:12;7.97;;;6.53;;
35225;SDS011;21813;49.686;21.766;2023-04-03T04:10:39;9.35;;;6.90;;
35225;SDS011;21813;49.686;21.766;2023-04-03T04:13:28;8.27;;;6.25;;
35225;SDS011;21813;49.686;21.766;2023-04-03T04:16:38;6.72;;;6.00;;
35225;SDS011;21813;49.686;21.766;2023-04-03T04:22:59;9.48;;;6.10;;
35225;SDS011;21813;49.686;21.766;2023-04-03T04:28:18;8.00;;;5.88;;
35225;SDS011;21813;49.686;21.766;2023-04-03T04:30:46;9.27;;;6.80;;
35225;SDS011;21813;49.686;21.766;2023-04-03T04:33:11;7.18;;;6.47;;
35225;SDS011;21813;49.686;21.766;2023-04-03T04:35:40;9.30;;;7.05;;
35225;SDS011;21813;49.686;21.766;2023-04-03T04:38:07;9.68;;;7.63;;
35225;SDS011;21813;49.686;21.766;2023-04-03T04:40:34;9.55;;;6.70;;
35225;SDS011;21813;49.686;21.766;2023-04-03T04:43:00;9.02;;;7.00;;
35225;SDS011;21813;49.686;21.766;2023-04-03T04:45:42;9.10;;;7.25;;
35225;SDS011;21813;49.686;21.766;2023-04-03T04:48:22;8.38;;;6.93;;
35225;SDS011;21813;49.686;21.766;2023-04-03T04:55:27;10.32;;;7.05;;
35225;SDS011;21813;49.686;21.766;2023-04-03T04:58:40;8.63;;;7.22;;
35225;SDS011;21813;49.686;21.766;2023-04-03T05:01:34;10.00;;;7.90;;
35225;SDS011;21813;49.686;21.766;2023-04-03T05:04:44;8.88;;;7.45;;
35225;SDS011;21813;49.686;21.766;2023-04-03T05:07:52;7.50;;;6.70;;
35225;SDS011;21813;49.686;21.766;2023-04-03T05:10:20;8.15;;;6.13;;
35225;SDS011;21813;49.686;21.766;2023-04-03T05:13:37;7.85;;;6.88;;
35225;SDS011;21813;49.686;21.766;2023-04-03T05:16:03;7.25;;;6.53;;
35225;SDS011;21813;49.686;21.766;2023-04-03T05:18:30;8.25;;;7.22;;
35225;SDS011;21813;49.686;21.766;2023-04-03T05:20:56;7.78;;;6.82;;
35225;SDS011;21813;49.686;21.766;2023-04-03T05:23:24;7.97;;;6.00;;
35225;SDS011;21813;49.686;21.766;2023-04-03T05:25:50;9.55;;;6.20;;
35225;SDS011;21813;49.686;21.766;2023-04-03T05:28:16;8.77;;;7.05;;
35225;SDS011;21813;49.686;21.766;2023-04-03T05:30:42;9.65;;;7.40;;
35225;SDS011;21813;49.686;21.766;2023-04-03T05:33:25;7.53;;;6.28;;
35225;SDS011;21813;49.686;21.766;2023-04-03T05:38:45;8.93;;;6.57;;
35225;SDS011;21813;49.686;21.766;2023-04-03T05:41:16;9.43;;;7.13;;
35225;SDS011;21813;49.686;21.766;2023-04-03T05:43:43;8.13;;;6.97;;
35225;SDS011;21813;49.686;21.766;2023-04-03T05:46:14;13.02;;;8.10;;
35225;SDS011;21813;49.686;21.766;2023-04-03T05:48:44;9.48;;;7.18;;
35225;SDS011;21813;49.686;21.766;2023-04-03T05:51:23;12.82;;;8.63;;
35225;SDS011;21813;49.686;21.766;2023-04-03T05:54:06;7.97;;;6.35;;
35225;SDS011;21813;49.686;21.766;2023-04-03T06:01:08;5.70;;;5.13;;
35225;SDS011;21813;49.686;21.766;2023-04-03T06:03:50;7.45;;;5.55;;
35225;SDS011;21813;49.686;21.766;2023-04-03T06:06:16;6.68;;;5.45;;
35225;SDS011;21813;49.686;21.766;2023-04-03T06:08:45;6.63;;;5.82;;
35225;SDS011;21813;49.686;21.766;2023-04-03T06:11:11;8.25;;;5.93;;
35225;SDS011;21813;49.686;21.766;2023-04-03T06:18:47;6.63;;;5.93;;
35225;SDS011;21813;49.686;21.766;2023-04-03T06:21:17;6.82;;;5.93;;
35225;SDS011;21813;49.686;21.766;2023-04-03T06:23:43;8.02;;;6.20;;
35225;SDS011;21813;49.686;21.766;2023-04-03T06:26:10;6.97;;;6.05;;
35225;SDS011;21813;49.686;21.766;2023-04-03T06:28:36;9.23;;;7.03;;
35225;SDS011;21813;49.686;21.766;2023-04-03T06:31:03;7.65;;;6.32;;
35225;SDS011;21813;49.686;21.766;2023-04-03T06:33:28;8.60;;;7.03;;
35225;SDS011;21813;49.686;21.766;2023-04-03T06:41:42;8.77;;;6.60;;
35225;SDS011;21813;49.686;21.766;2023-04-03T06:44:13;8.77;;;7.25;;
35225;SDS011;21813;49.686;21.766;2023-04-03T06:46:41;12.30;;;7.65;;
35225;SDS011;21813;49.686;21.766;2023-04-03T06:49:09;9.23;;;7.63;;
35225;SDS011;21813;49.686;21.766;2023-04-03T06:51:35;8.10;;;6.93;;
35225;SDS011;21813;49.686;21.766;2023-04-03T06:54:02;10.18;;;7.57;;
35225;SDS011;21813;49.686;21.766;2023-04-03T06:59:47;10.43;;;7.90;;
35225;SDS011;21813;49.686;21.766;2023-04-03T07:02:31;8.10;;;6.55;;
35225;SDS011;21813;49.686;21.766;2023-04-03T07:05:17;9.43;;;6.93;;
35225;SDS011;21813;49.686;21.766;2023-04-03T07:07:48;7.90;;;6.60;;
35225;SDS011;21813;49.686;21.766;2023-04-03T07:10:15;11.57;;;8.18;;
35225;SDS011;21813;49.686;21.766;2023-04-03T07:12:43;8.52;;;7.57;;
35225;SDS011;21813;49.686;21.766;2023-04-03T07:15:09;7.50;;;6.57;;
35225;SDS011;21813;49.686;21.766;2023-04-03T07:17:39;9.30;;;7.32;;
35225;SDS011;21813;49.686;21.766;2023-04-03T07:20:11;8.40;;;7.20;;
35225;SDS011;21813;49.686;21.766;2023-04-03T07:22:40;12.43;;;8.23;;
35225;SDS011;21813;49.686;21.766;2023-04-03T07:25:06;9.35;;;7.38;;
35225;SDS011;21813;49.686;21.766;2023-04-03T07:27:33;9.10;;;6.90;;
35225;SDS011;21813;49.686;21.766;2023-04-03T07:29:59;10.13;;;7.50;;
35225;SDS011;21813;49.686;21.766;2023-04-03T07:32:27;9.00;;;7.07;;
35225;SDS011;21813;49.686;21.766;2023-04-03T07:34:54;7.93;;;6.80;;
35225;SDS011;21813;49.686;21.766;2023-04-03T07:37:22;9.55;;;7.30;;
35225;SDS011;21813;49.686;21.766;2023-04-03T07:39:48;11.52;;;7.93;;
35225;SDS011;21813;49.686;21.766;2023-04-03T07:42:15;10.93;;;7.40;;
35225;SDS011;21813;49.686;21.766;2023-04-03T07:44:41;10.95;;;7.47;;
35225;SDS011;21813;49.686;21.766;2023-04-03T07:47:08;8.48;;;6.82;;
35225;SDS011;21813;49.686;21.766;2023-04-03T07:49:35;7.85;;;6.18;;
35225;SDS011;21813;49.686;21.766;2023-04-03T07:52:06;8.60;;;6.88;;
35225;SDS011;21813;49.686;21.766;2023-04-03T07:54:32;11.15;;;8.13;;
35225;SDS011;21813;49.686;21.766;2023-04-03T07:57:01;9.60;;;6.75;;
35225;SDS011;21813;49.686;21.766;2023-04-03T07:59:27;12.65;;;7.75;;
35225;SDS011;21813;49.686;21.766;2023-04-03T08:01:54;8.73;;;6.90;;
35225;SDS011;21813;49.686;21.766;2023-04-03T08:04:20;7.25;;;6.28;;
35225;SDS011;21813;49.686;21.766;2023-04-03T08:06:47;8.13;;;6.35;;
35225;SDS011;21813;49.686;21.766;2023-04-03T08:09:14;6.97;;;5.97;;
35225;SDS011;21813;49.686;21.766;2023-04-03T08:11:43;8.18;;;6.82;;
35225;SDS011;21813;49.686;21.766;2023-04-03T08:14:09;8.68;;;6.88;;
35225;SDS011;21813;49.686;21.766;2023-04-03T08:16:45;11.80;;;7.65;;
35225;SDS011;21813;49.686;21.766;2023-04-03T08:19:12;8.52;;;6.57;;
35225;SDS011;21813;49.686;21.766;2023-04-03T08:21:42;7.25;;;5.93;;
35225;SDS011;21813;49.686;21.766;2023-04-03T08:24:08;8.90;;;6.35;;
35225;SDS011;21813;49.686;21.766;2023-04-03T08:26:35;8.32;;;7.00;;
35225;SDS011;21813;49.686;21.766;2023-04-03T08:29:01;8.32;;;7.43;;
35225;SDS011;21813;49.686;21.766;2023-04-03T08:31:28;7.75;;;6.90;;
35225;SDS011;21813;49.686;21.766;2023-04-03T08:33:56;8.73;;;7.03;;
35225;SDS011;21813;49.686;21.766;2023-04-03T08:36:25;8.40;;;6.93;;
35225;SDS011;21813;49.686;21.766;2023-04-03T08:38:53;12.10;;;8.80;;
35225;SDS011;21813;49.686;21.766;2023-04-03T08:44:20;12.93;;;8.35;;
35225;SDS011;21813;49.686;21.766;2023-04-03T08:47:38;11.55;;;8.38;;
35225;SDS011;21813;49.686;21.766;2023-04-03T08:50:15;10.18;;;7.95;;
35225;SDS011;21813;49.686;21.766;2023-04-03T08:52:48;11.70;;;9.18;;
35225;SDS011;21813;49.686;21.766;2023-04-03T08:58:04;11.65;;;8.30;;
35225;SDS011;21813;49.686;21.766;2023-04-03T09:03:24;12.25;;;7.88;;
35225;SDS011;21813;49.686;21.766;2023-04-03T09:05:52;10.25;;;7.25;;
35225;SDS011;21813;49.686;21.766;2023-04-03T09:11:57;10.00;;;7.80;;
35225;SDS011;21813;49.686;21.766;2023-04-03T09:14:26;11.60;;;8.80;;
35225;SDS011;21813;49.686;21.766;2023-04-03T09:16:59;9.90;;;7.75;;
35225;SDS011;21813;49.686;21.766;2023-04-03T09:22:34;11.60;;;7.63;;
35225;SDS011;21813;49.686;21.766;2023-04-03T09:28:38;9.88;;;8.43;;
35225;SDS011;21813;49.686;21.766;2023-04-03T09:31:43;10.10;;;8.43;;
35225;SDS011;21813;49.686;21.766;2023-04-03T09:36:50;9.63;;;8.27;;
35225;SDS011;21813;49.686;21.766;2023-04-03T09:39:19;10.55;;;6.88;;
35225;SDS011;21813;49.686;21.766;2023-04-03T09:41:55;8.25;;;7.43;;
35225;SDS011;21813;49.686;21.766;2023-04-03T09:44:29;12.77;;;8.25;;
35225;SDS011;21813;49.686;21.766;2023-04-03T09:49:47;11.00;;;8.07;;
35225;SDS011;21813;49.686;21.766;2023-04-03T09:52:19;15.18;;;9.02;;
35225;SDS011;21813;49.686;21.766;2023-04-03T09:54:50;13.52;;;9.75;;
35225;SDS011;21813;49.686;21.766;2023-04-03T09:57:16;19.48;;;11.07;;
35225;SDS011;21813;49.686;21.766;2023-04-03T09:59:45;13.50;;;9.45;;
35225;SDS011;21813;49.686;21.766;2023-04-03T10:02:23;25.08;;;15.05;;
35225;SDS011;21813;49.686;21.766;2023-04-03T10:05:04;16.38;;;10.10;;
35225;SDS011;21813;49.686;21.766;2023-04-03T10:07:49;11.40;;;9.05;;
35225;SDS011;21813;49.686;21.766;2023-04-03T10:10:19;12.77;;;8.85;;
35225;SDS011;21813;49.686;21.766;2023-04-03T10:13:01;13.68;;;9.20;;
35225;SDS011;21813;49.686;21.766;2023-04-03T10:15:36;14.00;;;8.95;;
35225;SDS011;21813;49.686;21.766;2023-04-03T10:18:14;12.63;;;8.48;;
35225;SDS011;21813;49.686;21.766;2023-04-03T10:20:49;14.52;;;10.27;;
35225;SDS011;21813;49.686;21.766;2023-04-03T10:23:18;16.73;;;9.88;;
35225;SDS011;21813;49.686;21.766;2023-04-03T10:25:54;15.07;;;9.07;;
35225;SDS011;21813;49.686;21.766;2023-04-03T10:31:25;10.93;;;7.00;;
35225;SDS011;21813;49.686;21.766;2023-04-03T10:36:58;13.23;;;6.35;;
35225;SDS011;21813;49.686;21.766;2023-04-03T10:55:47;10.48;;;7.32;;
35225;SDS011;21813;49.686;21.766;2023-04-03T10:58:29;9.13;;;6.28;;
35225;SDS011;21813;49.686;21.766;2023-04-03T11:01:06;10.65;;;7.63;;
35225;SDS011;21813;49.686;21.766;2023-04-03T11:03:44;10.63;;;7.18;;
35225;SDS011;21813;49.686;21.766;2023-04-03T11:06:15;9.75;;;5.80;;
35225;SDS011;21813;49.686;21.766;2023-04-03T11:08:53;13.68;;;6.60;;
35225;SDS011;21813;49.686;21.766;2023-04-03T11:11:26;9.85;;;6.15;;
35225;SDS011;21813;49.686;21.766;2023-04-03T11:16:32;6.88;;;5.15;;
35225;SDS011;21813;49.686;21.766;2023-04-03T11:19:11;6.72;;;4.03;;
35225;SDS011;21813;49.686;21.766;2023-04-03T11:25:02;6.50;;;4.50;;
35225;SDS011;21813;49.686;21.766;2023-04-03T11:27:38;8.63;;;5.43;;
35225;SDS011;21813;49.686;21.766;2023-04-03T11:30:13;8.57;;;5.10;;
35225;SDS011;21813;49.686;21.766;2023-04-03T11:32:59;9.23;;;4.97;;
35225;SDS011;21813;49.686;21.766;2023-04-03T11:35:54;10.30;;;5.22;;
35225;SDS011;21813;49.686;21.766;2023-04-03T11:38:25;12.30;;;5.68;;
35225;SDS011;21813;49.686;21.766;2023-04-03T11:43:54;8.93;;;5.68;;
35225;SDS011;21813;49.686;21.766;2023-04-03T11:46:22;6.43;;;4.68;;
35225;SDS011;21813;49.686;21.766;2023-04-03T11:49:49;10.13;;;5.78;;
35225;SDS011;21813;49.686;21.766;2023-04-03T12:05:26;11.43;;;7.00;;
35225;SDS011;21813;49.686;21.766;2023-04-03T12:13:34;12.27;;;7.55;;
35225;SDS011;21813;49.686;21.766;2023-04-03T12:16:04;13.00;;;7.00;;
35225;SDS011;21813;49.686;21.766;2023-04-03T12:21:20;12.40;;;8.63;;
35225;SDS011;21813;49.686;21.766;2023-04-03T12:32:40;13.00;;;8.93;;
35225;SDS011;21813;49.686;21.766;2023-04-03T12:44:31;10.35;;;8.05;;
35225;SDS011;21813;49.686;21.766;2023-04-03T12:47:17;13.18;;;8.20;;
35225;SDS011;21813;49.686;21.766;2023-04-03T12:49:54;13.98;;;8.63;;
35225;SDS011;21813;49.686;21.766;2023-04-03T12:55:19;9.68;;;7.93;;
35225;SDS011;21813;49.686;21.766;2023-04-03T12:57:46;9.30;;;7.10;;
35225;SDS011;21813;49.686;21.766;2023-04-03T13:03:05;12.30;;;8.30;;
35225;SDS011;21813;49.686;21.766;2023-04-03T13:12:07;13.05;;;9.32;;
35225;SDS011;21813;49.686;21.766;2023-04-03T13:14:39;14.95;;;8.82;;
35225;SDS011;21813;49.686;21.766;2023-04-03T13:17:13;16.00;;;7.68;;
35225;SDS011;21813;49.686;21.766;2023-04-03T13:19:43;10.93;;;7.63;;
35225;SDS011;21813;49.686;21.766;2023-04-03T13:29:02;15.30;;;9.38;;
35225;SDS011;21813;49.686;21.766;2023-04-03T13:32:13;9.75;;;6.95;;
35225;SDS011;21813;49.686;21.766;2023-04-03T13:39:00;16.30;;;9.43;;
35225;SDS011;21813;49.686;21.766;2023-04-03T13:41:36;15.32;;;8.80;;
35225;SDS011;21813;49.686;21.766;2023-04-03T13:46:52;8.57;;;5.82;;
35225;SDS011;21813;49.686;21.766;2023-04-03T13:51:54;11.73;;;5.80;;
35225;SDS011;21813;49.686;21.766;2023-04-03T13:54:28;8.13;;;5.68;;
35225;SDS011;21813;49.686;21.766;2023-04-03T13:57:11;10.98;;;6.22;;
35225;SDS011;21813;49.686;21.766;2023-04-03T14:07:55;16.60;;;7.20;;
35225;SDS011;21813;49.686;21.766;2023-04-03T14:10:22;17.13;;;8.90;;
35225;SDS011;21813;49.686;21.766;2023-04-03T14:46:54;10.00;;;6.05;;
35225;SDS011;21813;49.686;21.766;2023-04-03T15:08:59;11.88;;;6.88;;
